createdAt,value
2017-08-08T00:01:21.140Z,59.50
2017-08-08T00:03:48.576Z,59.80
2017-08-08T00:06:16.073Z,60.10
2017-08-08T00:08:43.517Z,60.10
2017-08-08T00:11:10.969Z,60.10
2017-08-08T00:13:38.425Z,60.40
2017-08-08T00:16:06.634Z,61.40
2017-08-08T00:18:34.079Z,61.40
2017-08-08T00:21:01.536Z,61.60
2017-08-08T00:23:28.996Z,61.60
2017-08-08T00:25:56.469Z,61.90
2017-08-08T00:28:23.912Z,61.90
2017-08-08T00:30:51.373Z,62.00
2017-08-08T00:33:18.958Z,61.70
2017-08-08T00:35:46.700Z,61.90
2017-08-08T00:38:14.643Z,61.80
2017-08-08T00:40:42.127Z,61.60
2017-08-08T00:43:10.320Z,62.00
2017-08-08T00:45:37.772Z,61.30
2017-08-08T00:48:05.213Z,61.50
2017-08-08T00:50:32.685Z,61.50
2017-08-08T00:53:00.134Z,61.70
2017-08-08T00:55:27.596Z,61.80
2017-08-08T00:57:55.840Z,61.70
2017-08-08T01:00:23.385Z,61.70
2017-08-08T01:02:51.621Z,62.30
2017-08-08T01:05:19.142Z,61.60
2017-08-08T01:07:46.625Z,61.70
2017-08-08T01:10:14.097Z,61.40
2017-08-08T01:12:41.532Z,61.60
2017-08-08T01:15:09.743Z,61.10
2017-08-08T01:17:37.181Z,61.10
2017-08-08T01:20:04.644Z,61.30
2017-08-08T01:22:32.064Z,61.10
2017-08-08T01:24:59.528Z,61.30
2017-08-08T01:27:26.995Z,61.40
2017-08-08T01:29:54.613Z,61.20
2017-08-08T01:32:22.120Z,61.30
2017-08-08T01:34:49.588Z,62.00
2017-08-08T01:37:17.053Z,61.70
2017-08-08T01:39:44.519Z,61.80
2017-08-08T01:42:11.953Z,61.80
2017-08-08T01:44:40.174Z,62.70
2017-08-08T01:47:07.592Z,61.90
2017-08-08T01:49:35.048Z,61.30
2017-08-08T01:52:02.483Z,61.30
2017-08-08T01:54:29.929Z,61.50
2017-08-08T01:56:57.385Z,61.40
2017-08-08T01:59:24.827Z,61.20
2017-08-08T02:01:52.298Z,61.60
2017-08-08T02:04:19.754Z,60.90
2017-08-08T02:06:47.301Z,61.10
2017-08-08T02:09:15.563Z,62.30
2017-08-08T02:11:43.815Z,62.80
2017-08-08T02:14:11.293Z,62.20
2017-08-08T02:16:38.750Z,62.70
2017-08-08T02:19:06.208Z,62.70
2017-08-08T02:21:33.695Z,62.40
2017-08-08T02:24:01.147Z,62.50
2017-08-08T02:26:29.352Z,63.00
2017-08-08T02:28:56.804Z,63.00
2017-08-08T02:31:24.253Z,63.40
2017-08-08T02:33:51.768Z,63.70
2017-08-08T02:36:19.218Z,63.90
2017-08-08T02:38:46.708Z,63.90
2017-08-08T02:41:14.174Z,63.70
2017-08-08T02:43:41.700Z,63.90
2017-08-08T02:46:09.148Z,63.60
2017-08-08T02:48:37.373Z,63.30
2017-08-08T02:51:04.831Z,63.20
2017-08-08T02:53:33.076Z,63.60
2017-08-08T02:56:00.532Z,63.60
2017-08-08T02:58:27.975Z,64.00
2017-08-08T03:00:55.427Z,64.20
2017-08-08T03:03:22.883Z,64.30
2017-08-08T03:05:51.105Z,65.00
2017-08-08T03:08:18.560Z,64.30
2017-08-08T03:10:46.020Z,64.30
2017-08-08T03:13:15.287Z,65.20
2017-08-08T03:15:42.764Z,64.30
2017-08-08T03:18:11.029Z,64.70
2017-08-08T03:20:39.275Z,64.70
2017-08-08T03:23:06.728Z,64.70
2017-08-08T03:25:34.924Z,65.10
2017-08-08T03:28:02.380Z,65.10
2017-08-08T03:30:29.864Z,65.20
2017-08-08T03:32:57.328Z,65.20
2017-08-08T03:35:25.573Z,66.10
2017-08-08T03:37:53.020Z,65.70
2017-08-08T03:40:21.285Z,65.40
2017-08-08T03:42:48.837Z,65.30
2017-08-08T03:45:17.150Z,65.80
2017-08-08T03:47:44.593Z,65.80
2017-08-08T03:50:12.070Z,65.90
2017-08-08T03:52:39.609Z,66.20
2017-08-08T03:55:07.064Z,66.50
2017-08-08T03:57:35.319Z,66.90
2017-08-08T04:00:02.778Z,66.70
2017-08-08T04:02:30.273Z,66.60
2017-08-08T04:04:57.714Z,66.80
2017-08-08T04:07:25.197Z,66.70
2017-08-08T04:09:53.465Z,66.20
2017-08-08T04:12:21.663Z,66.70
2017-08-08T04:14:49.155Z,66.70
2017-08-08T04:17:16.588Z,66.50
2017-08-08T04:19:44.050Z,66.50
2017-08-08T04:22:11.488Z,66.50
2017-08-08T04:24:39.703Z,66.70
2017-08-08T04:27:07.173Z,66.40
2017-08-08T04:29:34.623Z,66.20
2017-08-08T04:32:02.189Z,66.20
2017-08-08T04:34:30.401Z,65.90
2017-08-08T04:36:57.866Z,65.90
2017-08-08T04:39:25.424Z,66.30
2017-08-08T04:41:52.960Z,66.30
2017-08-08T04:44:20.425Z,66.10
2017-08-08T04:46:48.624Z,66.20
2017-08-08T04:49:16.129Z,66.10
2017-08-08T04:51:43.678Z,65.60
2017-08-08T04:54:11.932Z,65.40
2017-08-08T04:56:40.189Z,65.80
2017-08-08T04:59:07.633Z,65.00
2017-08-08T05:01:35.068Z,64.90
2017-08-08T05:04:02.512Z,64.40
2017-08-08T05:06:29.981Z,64.60
2017-08-08T05:08:57.519Z,64.70
2017-08-08T05:11:25.717Z,64.80
2017-08-08T05:13:53.261Z,64.80
2017-08-08T05:16:20.704Z,64.40
2017-08-08T05:18:48.178Z,64.30
2017-08-08T05:21:15.729Z,63.90
2017-08-08T05:23:43.188Z,63.90
2017-08-08T05:26:11.405Z,64.20
2017-08-08T05:28:38.852Z,63.40
2017-08-08T05:31:06.322Z,63.10
2017-08-08T05:33:33.919Z,63.10
2017-08-08T05:36:01.375Z,63.10
2017-08-08T05:38:28.832Z,62.90
2017-08-08T05:40:56.447Z,63.30
2017-08-08T05:43:23.897Z,63.00
2017-08-08T05:45:51.456Z,61.90
2017-08-08T05:48:18.917Z,61.60
2017-08-08T05:50:46.374Z,60.80
2017-08-08T05:53:14.116Z,60.10
2017-08-08T05:55:41.572Z,59.60
2017-08-08T05:58:09.158Z,58.50
2017-08-08T06:00:36.683Z,57.60
2017-08-08T06:03:04.881Z,57.30
2017-08-08T06:05:32.325Z,57.00
2017-08-08T06:08:01.183Z,56.70
2017-08-08T06:10:28.736Z,57.30
2017-08-08T06:12:56.200Z,56.70
2017-08-08T06:15:24.409Z,55.50
2017-08-08T06:17:51.885Z,55.40
2017-08-08T06:20:20.126Z,56.20
2017-08-08T06:22:47.654Z,55.80
2017-08-08T06:25:15.119Z,54.70
2017-08-08T06:27:42.578Z,53.80
2017-08-08T06:30:10.041Z,53.50
2017-08-08T06:32:37.486Z,53.00
2017-08-08T06:35:04.990Z,53.20
2017-08-08T06:37:33.237Z,51.70
2017-08-08T06:40:01.469Z,50.20
2017-08-08T06:42:28.917Z,50.20
2017-08-08T06:44:56.474Z,50.10
2017-08-08T06:47:23.935Z,50.90
2017-08-08T06:49:51.385Z,50.50
2017-08-08T06:52:18.933Z,50.60
2017-08-08T06:54:46.472Z,50.80
2017-08-08T06:57:13.916Z,50.10
2017-08-08T06:59:41.417Z,49.30
2017-08-08T07:02:08.860Z,49.70
2017-08-08T07:04:36.305Z,49.40
2017-08-08T07:07:03.796Z,49.30
2017-08-08T07:09:31.241Z,49.30
2017-08-08T07:11:58.771Z,49.10
2017-08-08T07:14:26.219Z,48.40
2017-08-08T07:16:53.689Z,48.60
2017-08-08T07:19:21.900Z,47.80
2017-08-08T07:21:49.356Z,47.60
2017-08-08T07:24:16.882Z,46.80
2017-08-08T07:26:44.338Z,45.90
2017-08-08T07:29:11.916Z,45.50
2017-08-08T07:31:39.358Z,45.00
2017-08-08T07:34:06.797Z,45.00
2017-08-08T07:36:34.358Z,43.80
2017-08-08T07:39:02.570Z,44.90
2017-08-08T07:41:30.013Z,44.10
2017-08-08T07:43:57.455Z,45.80
2017-08-08T07:46:24.922Z,45.00
2017-08-08T07:48:52.352Z,44.70
2017-08-08T07:51:19.793Z,45.30
2017-08-08T07:53:47.266Z,44.30
2017-08-08T07:56:14.780Z,43.80
2017-08-08T07:58:42.208Z,44.10
2017-08-08T08:01:09.652Z,43.90
2017-08-08T08:03:37.186Z,43.70
2017-08-08T08:06:04.655Z,44.30
2017-08-08T08:08:32.849Z,45.50
2017-08-08T08:11:00.291Z,44.80
2017-08-08T08:13:27.739Z,44.80
2017-08-08T08:15:55.335Z,45.20
2017-08-08T08:18:22.878Z,44.90
2017-08-08T08:20:50.336Z,44.90
2017-08-08T08:23:18.614Z,44.60
2017-08-08T08:25:46.144Z,44.60
2017-08-08T08:28:14.354Z,44.10
2017-08-08T08:30:41.817Z,44.10
2017-08-08T08:33:09.255Z,44.20
2017-08-08T08:35:36.704Z,44.60
2017-08-08T08:38:04.264Z,44.90
2017-08-08T08:40:32.509Z,46.00
2017-08-08T08:43:00.071Z,45.30
2017-08-08T08:45:28.422Z,45.20
2017-08-08T08:47:55.863Z,45.20
2017-08-08T08:50:23.318Z,45.60
2017-08-08T08:52:50.749Z,45.60
2017-08-08T08:55:18.305Z,46.30
2017-08-08T08:57:46.197Z,45.90
2017-08-08T09:00:14.432Z,45.70
2017-08-08T09:02:41.873Z,45.70
2017-08-08T09:05:09.324Z,45.00
2017-08-08T09:07:36.761Z,44.00
2017-08-08T09:10:04.302Z,43.40
2017-08-08T09:12:31.756Z,42.60
2017-08-08T09:14:59.199Z,42.50
2017-08-08T09:17:26.637Z,43.40
2017-08-08T09:19:54.086Z,42.60
2017-08-08T09:22:21.617Z,42.30
2017-08-08T09:24:49.044Z,42.90
2017-08-08T09:27:16.477Z,42.70
2017-08-08T09:29:43.952Z,42.50
2017-08-08T09:32:11.393Z,41.50
2017-08-08T09:34:38.831Z,41.10
2017-08-08T09:37:06.390Z,40.00
2017-08-08T09:39:33.827Z,40.20
2017-08-08T09:42:01.284Z,40.40
2017-08-08T09:44:28.740Z,40.40
2017-08-08T09:46:56.972Z,39.70
2017-08-08T09:49:24.577Z,39.70
2017-08-08T09:51:52.064Z,39.50
2017-08-08T09:54:19.502Z,39.50
2017-08-08T09:56:47.013Z,38.70
2017-08-08T09:59:14.438Z,36.60
2017-08-08T10:01:41.919Z,34.90
2017-08-08T10:04:09.372Z,34.60
2017-08-08T10:06:36.888Z,34.10
2017-08-08T10:09:04.434Z,34.10
2017-08-08T10:11:31.866Z,33.90
2017-08-08T10:13:59.296Z,33.80
2017-08-08T10:16:26.737Z,33.70
2017-08-08T10:18:54.181Z,34.30
2017-08-08T10:21:22.167Z,33.90
2017-08-08T10:23:49.699Z,34.20
2017-08-08T10:26:17.145Z,35.30
2017-08-08T10:28:44.686Z,35.50
2017-08-08T10:31:12.119Z,36.10
2017-08-08T10:33:39.591Z,36.70
2017-08-08T10:36:07.933Z,38.90
2017-08-08T10:38:35.384Z,38.40
2017-08-08T10:41:02.846Z,37.70
2017-08-08T10:43:31.060Z,35.80
2017-08-08T10:45:58.535Z,35.80
2017-08-08T10:48:25.959Z,35.20
2017-08-08T10:50:53.429Z,35.00
2017-08-08T10:53:21.680Z,34.70
2017-08-08T10:55:49.221Z,34.70
2017-08-08T10:58:16.659Z,35.10
2017-08-08T11:00:44.109Z,36.30
2017-08-08T11:03:11.659Z,36.60
2017-08-08T11:05:39.114Z,36.70
2017-08-08T11:08:07.324Z,38.60
2017-08-08T11:10:34.784Z,38.60
2017-08-08T11:13:02.237Z,40.10
2017-08-08T11:15:29.781Z,39.80
2017-08-08T11:17:57.221Z,40.50
2017-08-08T11:20:24.802Z,40.80
2017-08-08T11:22:52.256Z,41.70
2017-08-08T11:25:19.754Z,42.10
2017-08-08T11:27:47.292Z,41.30
2017-08-08T11:30:14.746Z,41.50
2017-08-08T11:32:42.213Z,42.40
2017-08-08T11:35:10.444Z,41.80
2017-08-08T11:37:38.021Z,41.80
2017-08-08T11:40:06.246Z,42.50
2017-08-08T11:42:33.685Z,42.40
2017-08-08T11:45:01.139Z,42.60
2017-08-08T11:47:28.564Z,42.70
2017-08-08T11:49:56.064Z,42.70
2017-08-08T11:52:23.580Z,42.10
2017-08-08T11:54:51.786Z,43.30
2017-08-08T11:57:19.258Z,42.70
2017-08-08T11:59:46.704Z,42.60
2017-08-08T12:02:14.149Z,42.70
2017-08-08T12:04:41.609Z,43.30
2017-08-08T12:07:09.056Z,43.50
2017-08-08T12:09:37.337Z,43.20
2017-08-08T12:12:04.861Z,42.40
2017-08-08T12:14:32.409Z,43.00
2017-08-08T12:17:00.624Z,41.20
2017-08-08T12:19:29.763Z,41.20
2017-08-08T12:21:57.994Z,41.00
2017-08-08T12:24:25.451Z,41.70
2017-08-08T12:26:52.897Z,40.90
2017-08-08T12:29:21.183Z,41.20
2017-08-08T12:31:48.701Z,41.20
2017-08-08T12:34:16.924Z,41.20
2017-08-08T12:36:44.394Z,41.10
2017-08-08T12:39:11.819Z,41.80
2017-08-08T12:41:39.277Z,40.80
2017-08-08T12:44:06.709Z,41.20
2017-08-08T12:46:34.347Z,40.40
2017-08-08T12:49:01.821Z,39.80
2017-08-08T12:51:30.024Z,40.40
2017-08-08T12:53:57.460Z,40.40
2017-08-08T12:56:24.916Z,40.90
2017-08-08T12:58:52.416Z,41.60
2017-08-08T13:01:20.677Z,42.20
2017-08-08T13:03:48.881Z,41.40
2017-08-08T13:06:16.377Z,41.40
2017-08-08T13:08:44.579Z,41.50
2017-08-08T13:11:12.060Z,41.00
2017-08-08T13:13:39.498Z,41.00
2017-08-08T13:16:07.056Z,41.00
2017-08-08T13:18:34.613Z,41.80
2017-08-08T13:21:02.882Z,41.50
2017-08-08T13:23:31.090Z,41.90
2017-08-08T13:25:58.557Z,41.50
2017-08-08T13:28:26.008Z,41.80
2017-08-08T13:30:53.573Z,41.50
2017-08-08T13:33:21.041Z,40.80
2017-08-08T13:35:48.523Z,39.70
2017-08-08T13:38:15.973Z,39.70
2017-08-08T13:40:43.444Z,40.00
2017-08-08T13:43:11.640Z,40.80
2017-08-08T13:45:39.103Z,40.70
2017-08-08T13:48:06.552Z,40.40
2017-08-08T13:50:33.985Z,40.50
2017-08-08T13:53:01.429Z,40.30
2017-08-08T13:55:28.857Z,40.50
2017-08-08T13:57:56.297Z,40.40
2017-08-08T14:00:23.798Z,39.20
2017-08-08T14:02:51.295Z,39.30
2017-08-08T14:05:18.838Z,39.30
2017-08-08T14:07:46.320Z,39.00
2017-08-08T14:10:13.781Z,39.20
2017-08-08T14:12:41.240Z,38.60
2017-08-08T14:15:09.574Z,40.90
2017-08-08T14:17:37.150Z,40.80
2017-08-08T14:20:05.421Z,42.50
2017-08-08T14:22:32.867Z,42.50
2017-08-08T14:25:00.313Z,42.90
2017-08-08T14:27:27.740Z,43.40
2017-08-08T14:29:55.989Z,43.90
2017-08-08T14:32:23.423Z,43.80
2017-08-08T14:34:50.973Z,43.60
2017-08-08T14:37:19.451Z,43.50
2017-08-08T14:39:47.685Z,43.70
2017-08-08T14:42:15.140Z,43.70
2017-08-08T14:44:42.576Z,44.30
2017-08-08T14:47:10.122Z,45.00
2017-08-08T14:49:37.593Z,46.00
2017-08-08T14:52:05.846Z,45.40
2017-08-08T14:54:34.075Z,45.90
2017-08-08T14:57:01.501Z,45.90
2017-08-08T14:59:28.967Z,45.70
2017-08-08T15:01:56.405Z,44.50
2017-08-08T15:04:23.955Z,44.90
2017-08-08T15:06:51.402Z,44.90
2017-08-08T15:09:18.833Z,44.30
2017-08-08T15:11:46.456Z,44.80
2017-08-08T15:14:13.913Z,45.80
2017-08-08T15:16:41.480Z,45.50
2017-08-08T15:19:08.930Z,45.30
2017-08-08T15:21:36.361Z,45.30
2017-08-08T15:24:03.918Z,45.40
2017-08-08T15:26:32.133Z,47.10
2017-08-08T15:28:59.563Z,46.50
2017-08-08T15:31:27.007Z,47.00
2017-08-08T15:33:54.437Z,47.40
2017-08-08T15:36:21.882Z,47.70
2017-08-08T15:38:49.396Z,49.40
2017-08-08T15:41:17.622Z,51.10
2017-08-08T15:43:45.117Z,51.00
2017-08-08T15:46:13.324Z,50.40
2017-08-08T15:48:40.771Z,50.40
2017-08-08T15:51:08.240Z,51.00
2017-08-08T15:53:35.658Z,50.30
2017-08-08T15:56:03.109Z,50.60
2017-08-08T15:58:30.557Z,50.60
2017-08-08T16:00:58.234Z,50.60
2017-08-08T16:03:26.092Z,51.00
2017-08-08T16:05:53.622Z,54.70
2017-08-08T16:08:21.100Z,55.60
2017-08-08T16:10:49.353Z,56.90
2017-08-08T16:13:16.816Z,56.90
2017-08-08T16:15:45.030Z,57.00
2017-08-08T16:18:12.491Z,57.00
2017-08-08T16:20:40.763Z,56.80
2017-08-08T16:23:08.276Z,57.20
2017-08-08T16:25:35.735Z,56.10
2017-08-08T16:28:03.180Z,56.00
2017-08-08T16:30:30.721Z,57.00
2017-08-08T16:32:58.244Z,56.10
2017-08-08T16:35:25.890Z,55.00
2017-08-08T16:37:53.477Z,55.00
2017-08-08T16:40:20.925Z,56.00
2017-08-08T16:42:49.191Z,54.70
2017-08-08T16:45:17.397Z,55.50
2017-08-08T16:47:44.827Z,55.40
2017-08-08T16:50:12.292Z,54.90
2017-08-08T16:52:39.737Z,55.30
2017-08-08T16:55:07.385Z,55.20
2017-08-08T16:57:34.820Z,54.80
2017-08-08T17:00:02.278Z,56.30
2017-08-08T17:02:29.712Z,54.90
2017-08-08T17:04:57.145Z,55.40
2017-08-08T17:07:24.612Z,56.00
2017-08-08T17:09:52.045Z,59.00
2017-08-08T17:12:19.494Z,60.70
2017-08-08T17:14:46.937Z,62.30
2017-08-08T17:17:14.371Z,64.50
2017-08-08T17:19:42.757Z,64.30
2017-08-08T17:22:10.956Z,67.30
2017-08-08T17:24:38.399Z,67.30
2017-08-08T17:27:05.835Z,67.70
2017-08-08T17:29:33.272Z,69.80
2017-08-08T17:32:00.757Z,67.90
2017-08-08T17:34:28.217Z,69.60
2017-08-08T17:36:55.661Z,70.40
2017-08-08T17:39:23.099Z,69.40
2017-08-08T17:41:50.540Z,70.10
2017-08-08T17:44:18.084Z,69.20
2017-08-08T17:46:45.551Z,70.40
2017-08-08T17:49:13.877Z,69.50
2017-08-08T17:51:41.341Z,69.50
2017-08-08T17:54:08.801Z,69.80
2017-08-08T17:56:37.006Z,72.60
2017-08-08T17:59:04.489Z,72.30
2017-08-08T18:01:31.922Z,72.70
2017-08-08T18:03:59.375Z,73.40
2017-08-08T18:06:26.800Z,74.00
2017-08-08T18:08:54.266Z,74.70
2017-08-08T18:11:21.716Z,72.50
2017-08-08T18:13:49.969Z,75.30
2017-08-08T18:16:17.425Z,75.20
2017-08-08T18:18:45.633Z,75.80
2017-08-08T18:21:13.090Z,75.90
2017-08-08T18:23:40.571Z,77.20
2017-08-08T18:26:08.025Z,79.10
2017-08-08T18:28:35.461Z,76.80
2017-08-08T18:31:03.655Z,78.40
2017-08-08T18:33:31.092Z,78.40
2017-08-08T18:35:58.533Z,80.40
2017-08-08T18:38:25.967Z,77.70
2017-08-08T18:40:53.481Z,76.50
2017-08-08T18:43:21.001Z,78.10
2017-08-08T18:45:48.466Z,78.00
2017-08-08T18:48:15.910Z,80.00
2017-08-08T18:50:43.356Z,80.50
2017-08-08T18:53:11.617Z,83.30
2017-08-08T18:55:39.860Z,83.00
2017-08-08T18:58:07.305Z,83.00
2017-08-08T19:00:34.757Z,82.50
2017-08-08T19:03:02.281Z,83.40
2017-08-08T19:05:29.725Z,79.70
2017-08-08T19:07:57.190Z,81.70
2017-08-08T19:10:24.622Z,82.80
2017-08-08T19:12:52.065Z,81.90
2017-08-08T19:15:19.500Z,83.30
2017-08-08T19:17:46.957Z,83.10
2017-08-08T19:20:14.516Z,83.80
2017-08-08T19:22:42.758Z,81.50
2017-08-08T19:25:10.211Z,81.40
2017-08-08T19:27:37.649Z,82.80
2017-08-08T19:30:05.132Z,82.30
2017-08-08T19:32:32.609Z,83.30
2017-08-08T19:35:00.107Z,84.20
2017-08-08T19:37:27.633Z,82.70
2017-08-08T19:39:55.876Z,81.80
2017-08-08T19:42:23.365Z,81.80
2017-08-08T19:44:50.796Z,81.50
2017-08-08T19:47:18.253Z,81.90
2017-08-08T19:49:45.681Z,80.60
2017-08-08T19:52:13.208Z,83.40
2017-08-08T19:54:41.429Z,84.60
2017-08-08T19:57:08.859Z,84.60
2017-08-08T19:59:36.313Z,83.70
2017-08-08T20:02:03.816Z,82.10
2017-08-08T20:04:31.262Z,83.10
2017-08-08T20:06:58.709Z,85.10
2017-08-08T20:09:26.211Z,84.70
2017-08-08T20:11:53.665Z,83.60
2017-08-08T20:14:21.865Z,87.70
2017-08-08T20:16:49.366Z,87.00
2017-08-08T20:19:16.922Z,87.00
2017-08-08T20:21:45.117Z,86.40
2017-08-08T20:24:12.577Z,85.60
2017-08-08T20:26:40.137Z,84.70
2017-08-08T20:29:07.576Z,85.40
2017-08-08T20:31:35.022Z,87.40
2017-08-08T20:34:02.482Z,86.90
2017-08-08T20:36:29.936Z,85.40
2017-08-08T20:38:57.489Z,86.50
2017-08-08T20:41:25.838Z,85.90
2017-08-08T20:43:53.293Z,85.60
2017-08-08T20:46:23.090Z,84.60
2017-08-08T20:48:50.737Z,84.50
2017-08-08T20:51:18.277Z,84.80
2017-08-08T20:53:45.737Z,85.20
2017-08-08T20:56:13.934Z,83.60
2017-08-08T20:58:41.410Z,83.60
2017-08-08T21:01:08.857Z,83.40
2017-08-08T21:03:36.404Z,83.20
2017-08-08T21:06:03.857Z,83.00
2017-08-08T21:08:32.048Z,82.70
2017-08-08T21:10:59.606Z,82.80
2017-08-08T21:13:27.049Z,81.40
2017-08-08T21:15:54.503Z,82.80
2017-08-08T21:18:21.966Z,83.90
2017-08-08T21:20:49.545Z,81.10
2017-08-08T21:23:17.787Z,81.90
2017-08-08T21:25:45.240Z,81.10
2017-08-08T21:28:13.446Z,82.70
2017-08-08T21:30:40.898Z,81.90
2017-08-08T21:33:08.342Z,81.30
2017-08-08T21:35:35.812Z,82.10
2017-08-08T21:38:03.484Z,81.80
2017-08-08T21:40:31.837Z,81.30
2017-08-08T21:43:00.093Z,82.20
2017-08-08T21:45:27.539Z,82.10
2017-08-08T21:47:54.973Z,82.90
2017-08-08T21:50:23.200Z,81.50
2017-08-08T21:52:50.628Z,82.00
2017-08-08T21:55:18.082Z,83.50
2017-08-08T21:57:45.768Z,82.80
2017-08-08T22:00:13.192Z,84.30
2017-08-08T22:02:40.644Z,82.60
2017-08-08T22:05:08.071Z,84.00
2017-08-08T22:07:35.653Z,83.40
2017-08-08T22:10:03.901Z,83.20
2017-08-08T22:12:31.350Z,83.20
2017-08-08T22:14:58.788Z,83.40
2017-08-08T22:17:26.296Z,81.40
2017-08-08T22:19:53.742Z,82.90
2017-08-08T22:22:21.208Z,82.40
2017-08-08T22:24:48.665Z,82.80
2017-08-08T22:27:16.097Z,82.80
2017-08-08T22:29:43.532Z,81.60
2017-08-08T22:32:10.975Z,82.00
2017-08-08T22:34:38.427Z,81.00
2017-08-08T22:37:05.885Z,81.50
2017-08-08T22:39:33.319Z,81.50
2017-08-08T22:42:00.786Z,80.20
2017-08-08T22:44:28.217Z,80.90
2017-08-08T22:46:56.429Z,81.60
2017-08-08T22:49:24.000Z,81.60
2017-08-08T22:51:51.449Z,81.50
2017-08-08T22:54:18.880Z,80.30
2017-08-08T22:56:46.312Z,81.50
2017-08-08T22:59:13.749Z,80.70
2017-08-08T23:01:41.201Z,81.60
2017-08-08T23:04:08.753Z,80.50
2017-08-08T23:06:36.321Z,80.40
2017-08-08T23:09:03.749Z,80.70
2017-08-08T23:11:31.297Z,80.90
2017-08-08T23:13:59.528Z,79.50
2017-08-08T23:16:26.951Z,78.90
2017-08-08T23:18:54.410Z,80.40
2017-08-08T23:21:21.851Z,79.90
2017-08-08T23:23:49.298Z,80.50
2017-08-08T23:26:16.778Z,79.40
2017-08-08T23:28:44.278Z,81.00
2017-08-08T23:31:11.716Z,81.40
2017-08-08T23:33:39.161Z,81.10
2017-08-08T23:36:06.615Z,81.20
2017-08-08T23:38:34.063Z,80.40
2017-08-08T23:41:01.516Z,80.80
2017-08-08T23:43:28.973Z,80.50
2017-08-08T23:45:56.506Z,81.00
2017-08-08T23:48:23.959Z,80.70
2017-08-08T23:50:52.166Z,79.90
2017-08-08T23:53:19.608Z,79.80
2017-08-08T23:55:47.066Z,80.10
2017-08-08T23:58:14.507Z,80.50
